createdAt,value
2017-05-27T08:40:16.371Z,46.27
2017-05-27T08:41:01.188Z,46.31
2017-05-27T08:41:44.742Z,46.49
2017-05-27T08:42:26.152Z,46.55
2017-05-27T08:43:06.606Z,46.56
2017-05-27T08:43:47.110Z,46.56
2017-05-27T08:44:33.177Z,46.22
2017-05-27T08:45:13.878Z,46.12
2017-05-27T08:45:55.239Z,46.02
2017-05-27T08:46:37.340Z,45.97
2017-05-27T08:47:17.790Z,46.09
2017-05-27T08:49:31.651Z,46.53
2017-05-27T08:50:14.611Z,46.61
2017-05-27T08:52:30.621Z,46.5
2017-05-27T08:53:14.700Z,46.35
2017-05-27T08:53:59.709Z,46.05
2017-05-27T08:54:43.890Z,45.9
2017-05-27T08:55:25.972Z,45.85
2017-05-27T08:57:19.124Z,46.37
2017-05-27T08:57:59.598Z,46.5
2017-05-27T08:58:40.531Z,46.49
2017-05-27T08:59:21.002Z,46.55
2017-05-27T09:00:02.288Z,46.63
2017-05-27T09:00:44.469Z,46.81
2017-05-27T09:01:24.913Z,47.14
2017-05-27T09:02:05.353Z,47.38
2017-05-27T09:02:45.895Z,47.33
2017-05-27T09:03:26.611Z,47.03
2017-05-27T09:04:07.794Z,46.77
2017-05-27T09:06:07.487Z,46.47
2017-05-27T09:06:48.744Z,46.46
2017-05-27T09:07:30.000Z,46.59
2017-05-27T09:08:11.360Z,46.46
2017-05-27T09:08:51.802Z,46.63
2017-05-27T09:09:32.807Z,46.75
2017-05-27T09:11:21.848Z,46.9
2017-05-27T09:12:03.842Z,47.04
2017-05-27T09:12:44.989Z,47.07
2017-05-27T09:13:25.441Z,47.28
2017-05-27T09:14:05.884Z,47.44
2017-05-27T09:14:46.376Z,47.5
2017-05-27T09:17:00.003Z,48.06
2017-05-27T09:17:41.000Z,48.34
2017-05-27T09:18:21.566Z,48.61
2017-05-27T09:19:01.957Z,48.64
2017-05-27T09:19:45.050Z,48.86
2017-05-27T09:21:33.764Z,49.41
2017-05-27T09:22:14.185Z,49.45
2017-05-27T09:22:55.274Z,49.57
2017-05-27T09:23:38.287Z,49.64
2017-05-27T09:27:07.274Z,49.78
2017-05-27T09:27:49.639Z,50.1
2017-05-27T09:28:31.065Z,50.16
2017-05-27T09:29:11.447Z,50.19
2017-05-27T09:29:51.892Z,50.33
2017-05-27T09:30:34.318Z,50.48
2017-05-27T09:31:14.876Z,50.61
2017-05-27T09:31:56.262Z,50.73
2017-05-27T09:32:37.433Z,50.67
2017-05-27T09:33:17.982Z,50.39
2017-05-27T09:35:05.575Z,50.09
2017-05-27T09:35:48.740Z,49.93
2017-05-27T09:36:29.169Z,49.82
2017-05-27T09:37:09.599Z,49.86
2017-05-27T09:37:50.046Z,49.95
2017-05-27T09:38:30.552Z,50.09
2017-05-27T09:39:11.119Z,50.24
2017-05-27T09:39:54.874Z,50.45
2017-05-27T09:40:35.372Z,50.49
2017-05-27T09:41:15.847Z,50.44
2017-05-27T09:41:57.248Z,50.31
2017-05-27T09:42:40.235Z,50.16
2017-05-27T09:43:20.708Z,50.03
2017-05-27T09:44:01.202Z,49.94
2017-05-27T09:44:41.627Z,49.81
2017-05-27T09:45:22.730Z,49.98
2017-05-27T09:46:03.314Z,49.95
2017-05-27T09:46:43.813Z,49.93
2017-05-27T09:47:24.943Z,49.71
2017-05-27T09:48:05.326Z,49.36
2017-05-27T09:48:46.472Z,49.09
2017-05-27T09:49:26.935Z,49.05
2017-05-27T09:50:08.057Z,49
2017-05-27T09:50:49.524Z,49.07
2017-05-27T09:51:30.825Z,49.09
2017-05-27T09:52:12.023Z,49.17
2017-05-27T09:52:52.405Z,49.44
2017-05-27T09:53:32.905Z,49.56
2017-05-27T09:55:23.001Z,50.03
2017-05-27T09:56:03.534Z,50.12
2017-05-27T09:56:43.976Z,50.2
2017-05-27T09:57:25.204Z,50.05
2017-05-27T09:58:05.634Z,49.95
2017-05-27T09:58:46.899Z,50.16
2017-05-27T09:59:28.243Z,50.36
2017-05-27T10:00:09.518Z,50.47
2017-05-27T10:00:50.082Z,50.74
2017-05-27T10:01:31.474Z,50.86
2017-05-27T10:02:11.952Z,50.83
2017-05-27T10:02:52.393Z,50.92
2017-05-27T10:04:45.027Z,51.44
2017-05-27T10:05:25.496Z,51.76
2017-05-27T10:06:05.942Z,52.14
2017-05-27T10:06:46.391Z,52.44
2017-05-27T10:07:26.804Z,52.54
2017-05-27T10:08:07.367Z,52.54
2017-05-27T10:08:47.844Z,52.44
2017-05-27T10:09:28.485Z,52.23
2017-05-27T10:10:11.557Z,52.21
2017-05-27T10:10:52.001Z,52.23
2017-05-27T10:11:32.508Z,52.33
2017-05-27T10:12:12.975Z,52.21
2017-05-27T10:12:54.292Z,52.1
2017-05-27T10:13:36.294Z,51.98
2017-05-27T10:14:16.721Z,51.94
2017-05-27T10:14:57.145Z,52.05
2017-05-27T10:15:38.556Z,52.23
2017-05-27T10:16:19.538Z,52.51
2017-05-27T10:18:35.097Z,53.67
2017-05-27T10:19:15.703Z,53.85
2017-05-27T10:19:56.119Z,53.94
2017-05-27T10:20:36.574Z,53.62
2017-05-27T10:21:18.395Z,53.41
2017-05-27T10:22:00.663Z,53.07
2017-05-27T10:22:42.013Z,52.83
2017-05-27T10:23:23.030Z,52.71
2017-05-27T10:24:03.444Z,52.85
2017-05-27T10:24:45.772Z,53.09
2017-05-27T10:25:26.767Z,53.37
2017-05-27T10:26:07.273Z,53.44
2017-05-27T10:26:47.668Z,53.7
2017-05-27T10:29:01.266Z,52.82
2017-05-27T10:29:42.514Z,52.47
2017-05-27T10:30:22.947Z,52.12
2017-05-27T10:31:04.354Z,51.94
2017-05-27T10:36:07.905Z,51.9
2017-05-27T10:36:49.194Z,52.14
2017-05-27T10:37:29.664Z,52.48
2017-05-27T10:38:10.123Z,52.86
2017-05-27T10:38:50.655Z,52.85
2017-05-27T10:39:31.687Z,52.64
2017-05-27T10:40:13.109Z,52.4
2017-05-27T10:40:53.497Z,52.13
2017-05-27T10:41:48.678Z,51.78
2017-05-27T10:48:16.748Z,54.57
2017-05-27T10:48:57.755Z,54.41
2017-05-27T10:49:38.204Z,54.15
2017-05-27T10:50:19.466Z,53.81
2017-05-27T10:50:59.939Z,53.39
2017-05-27T10:51:40.694Z,52.88
2017-05-27T10:52:22.268Z,52.47
2017-05-27T10:53:07.845Z,52.2
2017-05-27T10:53:49.524Z,52.07
2017-05-27T10:54:30.958Z,52.2
2017-05-27T10:56:59.906Z,52.69
2017-05-27T10:57:41.189Z,52.67
2017-05-27T10:58:27.939Z,52.96
2017-05-27T10:59:09.761Z,53.2
2017-05-27T11:01:02.156Z,53.65
2017-05-27T11:01:42.621Z,53.81
2017-05-27T11:04:05.305Z,54.8
2017-05-27T11:07:38.712Z,55.16
2017-05-27T11:12:50.422Z,53.04
2017-05-27T11:13:31.585Z,53.22
2017-05-27T11:14:12.050Z,53.08
2017-05-27T11:14:53.346Z,52.93
2017-05-27T11:15:33.878Z,52.67
2017-05-27T11:16:17.066Z,52.36
2017-05-27T11:16:57.461Z,52.32
2017-05-27T11:17:37.932Z,52.28
2017-05-27T11:18:19.240Z,52.19
2017-05-27T11:19:00.883Z,52.19
2017-05-27T11:19:41.939Z,52.16
2017-05-27T11:20:22.385Z,52.13
2017-05-27T11:21:03.404Z,52.1
2017-05-27T11:21:43.837Z,52.35
2017-05-27T11:23:24.884Z,52.42
2017-05-27T11:24:05.340Z,52.35
2017-05-27T11:24:51.501Z,52.45
2017-05-27T11:25:32.181Z,52.64
2017-05-27T11:26:12.652Z,52.85
2017-05-27T11:26:53.143Z,52.96
2017-05-27T11:27:34.158Z,53.08
2017-05-27T11:28:14.602Z,53.25
2017-05-27T11:30:02.705Z,52.6
2017-05-27T11:30:43.171Z,52.48
2017-05-27T11:31:23.610Z,52.66
2017-05-27T11:32:04.033Z,52.54
2017-05-27T11:33:56.781Z,52.51
2017-05-27T11:34:37.223Z,52.48
2017-05-27T11:35:17.685Z,52.81
2017-05-27T11:35:58.135Z,53.11
2017-05-27T11:36:38.589Z,53.31
2017-05-27T11:37:20.915Z,53.58
2017-05-27T11:39:34.097Z,53.18
2017-05-27T11:40:15.555Z,52.9
2017-05-27T11:40:56.955Z,52.62
2017-05-27T11:41:38.052Z,52.38
2017-05-27T11:42:18.453Z,52.38
2017-05-27T11:42:58.860Z,52.82
2017-05-27T11:43:42.042Z,53.24
2017-05-27T11:44:22.565Z,53.62
2017-05-27T11:45:03.778Z,54.05
2017-05-27T11:45:44.218Z,53.98
2017-05-27T11:46:25.572Z,53.67
2017-05-27T11:47:06.024Z,53.34
2017-05-27T11:47:49.736Z,53.21
2017-05-27T11:48:32.186Z,52.89
2017-05-27T11:49:19.210Z,52.66
2017-05-27T11:50:02.996Z,52.39
2017-05-27T11:50:43.437Z,52.14
2017-05-27T11:51:23.860Z,52.02
2017-05-27T11:52:05.122Z,52.19
2017-05-27T11:52:45.592Z,52.4
2017-05-27T11:53:25.990Z,52.63
2017-05-27T11:54:06.442Z,52.79
2017-05-27T11:54:48.656Z,53.04
2017-05-27T11:55:29.109Z,53.24
2017-05-27T11:56:12.957Z,53.32
2017-05-27T11:56:53.452Z,52.96
2017-05-27T11:57:34.798Z,52.57
2017-05-27T11:58:15.289Z,52.19
2017-05-27T11:58:56.384Z,52.12
2017-05-27T11:59:36.917Z,51.94
2017-05-27T12:00:17.265Z,51.74
2017-05-27T12:02:02.309Z,51.79
2017-05-27T12:02:42.732Z,52.07
2017-05-27T12:03:23.214Z,52.14
2017-05-27T12:04:03.648Z,52.35
2017-05-27T12:04:44.068Z,52.47
2017-05-27T12:05:24.511Z,52.4
2017-05-27T12:06:05.005Z,52.39
2017-05-27T12:06:45.446Z,52.44
2017-05-27T12:07:25.901Z,52.32
2017-05-27T12:08:06.377Z,52.29
2017-05-27T12:08:46.822Z,52.17
2017-05-27T12:09:27.285Z,52.1
2017-05-27T12:10:07.730Z,52.2
2017-05-27T12:10:48.186Z,52.58
2017-05-27T12:11:28.678Z,52.92
2017-05-27T12:13:26.540Z,54.12
2017-05-27T12:14:07.006Z,54.34
2017-05-27T12:14:47.442Z,54.5
2017-05-27T12:15:28.412Z,54.57
2017-05-27T12:16:08.842Z,54.39
2017-05-27T12:16:49.320Z,54.15
2017-05-27T12:17:29.771Z,53.85
2017-05-27T12:18:10.278Z,53.66
2017-05-27T12:18:50.713Z,53.37
2017-05-27T12:21:05.181Z,53.31
2017-05-27T12:21:45.616Z,53.27
2017-05-27T12:22:26.050Z,53.07
2017-05-27T12:23:07.023Z,52.82
2017-05-27T12:23:47.467Z,52.42
2017-05-27T12:25:46.864Z,51.44
2017-05-27T12:26:27.318Z,51.2
2017-05-27T12:27:07.784Z,50.86
2017-05-27T12:27:48.857Z,50.66
2017-05-27T12:28:29.280Z,50.63
2017-05-27T12:29:09.723Z,50.73
2017-05-27T12:29:50.144Z,50.77
2017-05-27T12:31:38.016Z,51.27
2017-05-27T12:32:18.457Z,51.47
2017-05-27T12:32:58.973Z,51.63
2017-05-27T12:33:39.427Z,51.61
2017-05-27T12:34:19.913Z,51.4
2017-05-27T12:36:10.790Z,50.83
2017-05-27T12:36:51.256Z,50.71
2017-05-27T12:37:31.729Z,50.31
2017-05-27T12:38:12.208Z,50.07
2017-05-27T12:38:52.789Z,49.72
2017-05-27T12:39:33.241Z,49.29
2017-05-27T12:40:13.735Z,48.91
2017-05-27T12:40:54.217Z,48.53
2017-05-27T12:41:35.225Z,48.22
2017-05-27T12:42:15.723Z,48.26
2017-05-27T12:42:56.187Z,48.27
2017-05-27T12:44:49.061Z,49.15
2017-05-27T12:45:29.517Z,49.57
2017-05-27T12:46:09.951Z,49.81
2017-05-27T12:46:50.391Z,50.06
2017-05-27T12:47:30.826Z,50.24
2017-05-27T12:48:11.333Z,50.33
2017-05-27T12:48:51.852Z,50.28
2017-05-27T12:49:32.311Z,50.42
2017-05-27T12:50:12.759Z,50.63
2017-05-27T12:52:00.402Z,51.35
2017-05-27T12:52:40.846Z,51.52
2017-05-27T12:53:21.273Z,51.63
2017-05-27T12:54:01.715Z,51.7
2017-05-27T12:54:42.127Z,51.5
2017-05-27T12:55:22.590Z,51.27
2017-05-27T12:56:03.031Z,51.12
2017-05-27T12:56:43.479Z,50.87
2017-05-27T12:57:23.921Z,50.47
2017-05-27T12:58:04.394Z,50.12
2017-05-27T12:58:44.830Z,49.94
2017-05-27T13:00:32.527Z,49.68
2017-05-27T13:01:12.959Z,49.59
2017-05-27T13:01:53.384Z,49.72
2017-05-27T13:02:33.845Z,49.52
2017-05-27T13:03:14.306Z,49.31
2017-05-27T13:03:54.753Z,49.29
2017-05-27T13:05:32.281Z,49.48
2017-05-27T13:06:12.726Z,49.59
2017-05-27T13:06:53.205Z,49.78
2017-05-27T13:07:33.636Z,50.06
2017-05-27T13:08:14.076Z,49.83
2017-05-27T13:08:54.530Z,49.45
2017-05-27T13:09:35.752Z,49.17
2017-05-27T13:10:16.188Z,49.12
2017-05-27T13:10:56.699Z,49.26
2017-05-27T13:11:37.134Z,49.34
2017-05-27T13:12:17.556Z,49.45
2017-05-27T13:12:58.714Z,49.26
2017-05-27T13:13:39.130Z,49.22
2017-05-27T13:14:19.580Z,48.89
2017-05-27T13:14:59.986Z,48.71
2017-05-27T13:15:40.492Z,48.51
2017-05-27T13:16:20.933Z,48.52
2017-05-27T13:17:01.380Z,48.61
2017-05-27T13:17:41.815Z,48.53
2017-05-27T13:18:22.226Z,48.49
2017-05-27T13:19:02.648Z,48.39
2017-05-27T13:19:43.118Z,48.07
2017-05-27T13:20:23.577Z,47.67
2017-05-27T13:21:04.018Z,47.19
2017-05-27T13:21:44.435Z,46.49
2017-05-27T13:22:24.899Z,45.61
2017-05-27T13:23:05.366Z,44.75
2017-05-27T13:23:45.840Z,43.92
2017-05-27T13:24:26.295Z,43.15
2017-05-27T13:25:06.746Z,42.49
2017-05-27T13:25:47.139Z,42
2017-05-27T13:26:27.705Z,41.45
2017-05-27T13:27:08.158Z,40.88
2017-05-27T13:27:48.524Z,40.34
2017-05-27T13:28:28.991Z,39.67
2017-05-27T13:29:09.450Z,39.17
2017-05-27T13:29:49.846Z,38.73
2017-05-27T13:30:30.268Z,38.2
2017-05-27T13:31:10.748Z,37.64
2017-05-27T13:31:51.221Z,37.22
2017-05-27T13:33:45.061Z,36.35
2017-05-27T13:34:25.499Z,36.09
2017-05-27T13:35:05.988Z,35.78
2017-05-27T13:35:46.452Z,35.5
2017-05-27T13:36:26.861Z,35.35
2017-05-27T13:37:07.507Z,35.03
2017-05-27T13:37:48.056Z,34.69
2017-05-27T13:38:28.509Z,34.53
2017-05-27T13:40:16.331Z,34.21
2017-05-27T13:40:56.775Z,34.1
2017-05-27T13:41:37.220Z,34.1
2017-05-27T13:42:17.865Z,33.91
2017-05-27T13:42:58.323Z,33.88
2017-05-27T13:43:38.730Z,33.79
2017-05-27T13:44:19.232Z,33.72
2017-05-27T13:44:59.707Z,33.54
2017-05-27T13:45:40.094Z,33.55
2017-05-27T13:46:21.559Z,33.44
2017-05-27T13:47:01.990Z,33.39
2017-05-27T13:47:42.422Z,33.33
2017-05-27T13:48:22.825Z,33.2
2017-05-27T13:49:03.204Z,33.17
2017-05-27T13:49:43.673Z,33.05
2017-05-27T13:50:24.101Z,33.04
2017-05-27T13:51:04.495Z,32.91
2017-05-27T13:51:45.123Z,32.97
2017-05-27T13:52:25.513Z,32.97
2017-05-27T13:53:05.932Z,32.91
2017-05-27T13:53:46.471Z,32.97
2017-05-27T13:54:26.890Z,33.1
2017-05-27T13:56:24.625Z,33.2
2017-05-27T13:57:05.079Z,33.32
2017-05-27T13:57:45.524Z,33.35
2017-05-27T13:58:26.020Z,33.31
2017-05-27T13:59:06.492Z,33.29
2017-05-27T13:59:46.880Z,33.2
2017-05-27T14:00:27.302Z,33.26
2017-05-27T14:01:07.734Z,33.31
2017-05-27T14:01:48.173Z,33.26
2017-05-27T14:02:28.631Z,33.32
2017-05-27T14:03:09.004Z,33.4
2017-05-27T14:03:49.391Z,33.53
2017-05-27T14:04:29.858Z,33.51
2017-05-27T14:05:10.258Z,33.48
2017-05-27T14:05:50.701Z,33.38
2017-05-27T14:06:31.065Z,33.32
2017-05-27T14:07:11.513Z,33.19
2017-05-27T14:07:51.935Z,33.09
2017-05-27T14:08:32.330Z,32.98
2017-05-27T14:09:12.754Z,32.93
2017-05-27T14:09:53.212Z,32.83
2017-05-27T14:10:33.636Z,32.73
2017-05-27T14:11:14.063Z,32.61
2017-05-27T14:11:54.474Z,32.49
2017-05-27T14:12:34.891Z,32.31
2017-05-27T14:13:15.334Z,32.09
2017-05-27T14:13:55.718Z,32
2017-05-27T14:14:36.129Z,32.04
2017-05-27T14:15:16.537Z,32
2017-05-27T14:15:56.964Z,31.97
2017-05-27T14:16:37.399Z,31.98
2017-05-27T14:17:17.837Z,31.97
2017-05-27T14:17:58.275Z,32.02
2017-05-27T14:18:38.764Z,31.98
2017-05-27T14:20:32.165Z,32
2017-05-27T14:21:12.584Z,32.09
2017-05-27T14:21:53.062Z,32.09
2017-05-27T14:22:33.544Z,32.19
2017-05-27T14:23:13.908Z,32.17
2017-05-27T14:23:54.421Z,32.12
2017-05-27T14:25:52.878Z,32
2017-05-27T14:26:33.294Z,32.02
2017-05-27T14:27:13.730Z,31.98
2017-05-27T14:27:54.186Z,32
2017-05-27T14:28:34.621Z,31.95
2017-05-27T14:29:15.047Z,31.92
2017-05-27T14:29:55.521Z,31.77
2017-05-27T14:30:35.937Z,31.74
2017-05-27T14:31:16.414Z,31.67
2017-05-27T14:31:56.848Z,31.67
2017-05-27T14:32:37.344Z,31.57
2017-05-27T14:33:17.779Z,31.54
2017-05-27T14:33:58.216Z,31.47
2017-05-27T14:34:38.664Z,31.47
2017-05-27T14:35:19.108Z,31.37
2017-05-27T14:35:59.556Z,31.3
2017-05-27T14:36:40.028Z,31.32
2017-05-27T14:37:20.416Z,31.36
2017-05-27T14:38:00.829Z,31.39
2017-05-27T14:38:41.296Z,31.44
2017-05-27T14:39:21.712Z,31.54
2017-05-27T14:40:02.139Z,31.55
2017-05-27T14:40:42.595Z,31.64
2017-05-27T14:41:23.049Z,31.64
2017-05-27T14:42:03.455Z,31.7
2017-05-27T14:42:43.898Z,31.74
2017-05-27T14:43:24.338Z,31.82
2017-05-27T14:45:17.153Z,31.77
2017-05-27T14:45:57.604Z,31.59
2017-05-27T14:46:38.046Z,31.37
2017-05-27T14:47:18.480Z,31.33
2017-05-27T14:47:58.903Z,31.28
2017-05-27T14:48:39.395Z,31.25
2017-05-27T14:49:19.789Z,31.25
2017-05-27T14:50:00.249Z,31.25
2017-05-27T14:50:40.636Z,31.23
2017-05-27T14:51:21.062Z,31.26
2017-05-27T14:53:18.871Z,31.35
2017-05-27T14:53:59.288Z,31.33
2017-05-27T14:54:39.726Z,31.42
2017-05-27T14:55:20.169Z,31.42
2017-05-27T14:56:00.584Z,31.37
2017-05-27T14:56:41.024Z,31.42
2017-05-27T14:57:21.414Z,31.42
2017-05-27T14:58:01.869Z,31.37
2017-05-27T14:58:42.316Z,31.22
2017-05-27T14:59:22.797Z,31.22
2017-05-27T15:00:03.227Z,31.17
2017-05-27T15:00:43.658Z,31.23
2017-05-27T15:01:24.074Z,31.18
2017-05-27T15:02:04.515Z,31.18
2017-05-27T15:02:44.922Z,31.2
2017-05-27T15:03:25.392Z,31.2
2017-05-27T15:04:05.812Z,31.26
2017-05-27T15:04:46.198Z,31.29
2017-05-27T15:05:26.658Z,31.26
2017-05-27T15:06:07.113Z,31.42
2017-05-27T15:07:44.845Z,31.57
2017-05-27T15:08:25.338Z,31.55
2017-05-27T15:09:05.742Z,31.5
2017-05-27T15:09:46.171Z,31.48
2017-05-27T15:10:26.593Z,31.36
2017-05-27T15:11:07.100Z,31.23
2017-05-27T15:11:47.534Z,31.1
2017-05-27T15:13:40.279Z,30.76
2017-05-27T15:14:20.714Z,30.71
2017-05-27T15:15:01.145Z,30.65
2017-05-27T15:15:41.575Z,30.7
2017-05-27T15:16:22.023Z,30.65
2017-05-27T15:17:02.674Z,30.67
2017-05-27T15:17:43.062Z,30.69
2017-05-27T15:18:23.471Z,30.73
2017-05-27T15:19:03.888Z,30.77
2017-05-27T15:19:44.352Z,30.81
2017-05-27T15:20:24.767Z,30.69
2017-05-27T15:21:05.233Z,30.7
2017-05-27T15:21:45.667Z,30.67
2017-05-27T15:22:26.155Z,30.61
2017-05-27T15:23:06.592Z,30.71
2017-05-27T15:23:47.067Z,30.7
2017-05-27T15:24:27.506Z,30.74
2017-05-27T15:25:07.940Z,30.81
2017-05-27T15:25:48.463Z,30.78
2017-05-27T15:26:28.877Z,30.92
2017-05-27T15:27:09.305Z,30.95
2017-05-27T15:29:07.142Z,31
2017-05-27T15:29:47.545Z,31
2017-05-27T15:30:28.015Z,31.02
2017-05-27T15:31:08.468Z,31
2017-05-27T15:31:48.872Z,31.02
2017-05-27T15:32:29.312Z,30.99
2017-05-27T15:33:09.791Z,30.99
2017-05-27T15:33:50.165Z,30.91
2017-05-27T15:34:30.598Z,30.76
2017-05-27T15:35:11.114Z,30.78
2017-05-27T15:35:51.620Z,30.69
2017-05-27T15:36:32.057Z,30.74
2017-05-27T15:37:14.114Z,30.77
2017-05-27T15:37:54.478Z,30.7
2017-05-27T15:38:34.811Z,30.71
2017-05-27T15:39:15.241Z,30.65
2017-05-27T15:39:55.725Z,30.63
2017-05-27T15:40:36.160Z,30.55
2017-05-27T15:41:16.868Z,30.4
2017-05-27T15:41:57.272Z,30.29
2017-05-27T15:42:37.710Z,30.31
2017-05-27T15:44:30.558Z,30.27
2017-05-27T15:45:11.052Z,30.21
2017-05-27T15:45:51.510Z,30.11
2017-05-27T15:46:32.051Z,30.29
2017-05-27T15:47:12.483Z,30.26
2017-05-27T15:47:52.868Z,30.24
2017-05-27T15:48:33.316Z,30.26
2017-05-27T15:49:14.190Z,30.26
2017-05-27T15:49:54.610Z,30.27
2017-05-27T15:50:35.078Z,30.26
2017-05-27T15:51:15.807Z,30.33
2017-05-27T15:51:56.121Z,30.35
2017-05-27T15:52:36.565Z,30.36
2017-05-27T15:53:17.209Z,30.26
2017-05-27T15:53:58.032Z,30.31
2017-05-27T15:54:38.617Z,30.24
2017-05-27T15:55:20.192Z,30.13
2017-05-27T15:56:00.648Z,30.08
2017-05-27T15:56:41.076Z,30.14
2017-05-27T15:57:21.529Z,30.03
2017-05-27T15:58:02.021Z,30.08
2017-05-27T15:58:42.457Z,29.99
2017-05-27T15:59:23.364Z,29.99
2017-05-27T16:00:03.952Z,30.02
2017-05-27T16:00:44.388Z,29.95
2017-05-27T16:01:24.891Z,29.96
2017-05-27T16:02:05.396Z,29.92
2017-05-27T16:02:46.753Z,29.96
2017-05-27T16:03:27.159Z,29.89
2017-05-27T16:04:07.593Z,29.87
2017-05-27T16:04:48.048Z,29.92
2017-05-27T16:05:28.502Z,29.95
2017-05-27T16:06:09.792Z,29.84
2017-05-27T16:06:50.210Z,29.8
2017-05-27T16:07:31.303Z,29.8
2017-05-27T16:08:11.715Z,29.79
2017-05-27T16:08:52.167Z,29.79
2017-05-27T16:09:32.579Z,29.76
2017-05-27T16:10:13.051Z,29.68
2017-05-27T16:10:53.471Z,29.76
2017-05-27T16:11:33.952Z,29.69
2017-05-27T16:12:14.362Z,29.68
2017-05-27T16:12:54.853Z,29.62
2017-05-27T16:13:35.305Z,29.62
2017-05-27T16:14:15.757Z,29.53
2017-05-27T16:14:56.256Z,29.49
2017-05-27T16:15:36.686Z,29.42
2017-05-27T16:16:17.149Z,29.46
2017-05-27T16:16:57.611Z,29.35
2017-05-27T16:17:38.030Z,29.28
2017-05-27T16:18:18.627Z,29.27
2017-05-27T16:18:59.044Z,29.28
2017-05-27T16:19:39.491Z,29.31
2017-05-27T16:20:19.960Z,29.22
2017-05-27T16:21:00.372Z,29.2
2017-05-27T16:21:40.746Z,29.16
2017-05-27T16:22:21.185Z,29.18
2017-05-27T16:23:01.684Z,29.25
2017-05-27T16:23:42.137Z,29.24
2017-05-27T16:24:22.535Z,29.21
2017-05-27T16:25:03.010Z,29.18
2017-05-27T16:27:15.999Z,29.2
2017-05-27T16:27:56.399Z,29.24
2017-05-27T16:28:36.819Z,29.21
2017-05-27T16:29:17.282Z,29.13
2017-05-27T16:29:57.686Z,29.15
2017-05-27T16:30:38.105Z,29.09
2017-05-27T16:31:18.493Z,29.06
2017-05-27T16:31:58.927Z,29.12
2017-05-27T16:32:39.350Z,29.15
2017-05-27T16:33:19.801Z,29.1
2017-05-27T16:34:00.194Z,29.03
2017-05-27T16:34:40.611Z,29.1
2017-05-27T16:35:21.041Z,28.94
2017-05-27T16:36:01.478Z,29.06
2017-05-27T16:36:41.991Z,28.97
2017-05-27T16:37:22.467Z,29
2017-05-27T16:38:02.886Z,28.97
2017-05-27T16:38:43.346Z,28.94
2017-05-27T16:39:23.766Z,28.93
2017-05-27T16:40:04.171Z,28.89
2017-05-27T16:40:44.636Z,28.93
2017-05-27T16:41:25.039Z,28.89
2017-05-27T16:42:05.483Z,28.87
2017-05-27T16:42:45.940Z,28.89
2017-05-27T16:43:26.533Z,28.93
2017-05-27T16:44:07.155Z,28.89
2017-05-27T16:44:47.594Z,28.93
2017-05-27T16:45:28.081Z,28.92
2017-05-27T16:46:08.502Z,28.94
2017-05-27T16:46:48.942Z,29.02
2017-05-27T16:47:29.358Z,29.05
2017-05-27T16:48:09.776Z,29.06
2017-05-27T16:50:22.683Z,29.06
2017-05-27T16:51:03.118Z,28.94
2017-05-27T16:51:43.547Z,29
2017-05-27T16:52:23.966Z,28.9
2017-05-27T16:53:04.477Z,28.86
2017-05-27T16:53:44.913Z,28.8
2017-05-27T16:54:25.393Z,28.74
2017-05-27T16:55:05.824Z,28.74
2017-05-27T16:55:46.184Z,28.71
2017-05-27T16:57:43.804Z,28.6
2017-05-27T16:58:24.274Z,28.57
2017-05-27T16:59:04.722Z,28.5
2017-05-27T16:59:45.210Z,28.52
2017-05-27T17:00:25.606Z,28.47
2017-05-27T17:01:06.115Z,28.46
2017-05-27T17:01:46.564Z,28.46
2017-05-27T17:02:26.999Z,28.5
2017-05-27T17:03:07.422Z,28.43
2017-05-27T17:03:47.852Z,28.37
2017-05-27T17:04:28.280Z,28.37
2017-05-27T17:05:08.701Z,28.34
2017-05-27T17:05:49.166Z,28.35
2017-05-27T17:06:29.604Z,28.38
2017-05-27T17:07:10.063Z,28.4
2017-05-27T17:07:50.501Z,28.52
2017-05-27T17:08:30.923Z,28.4
2017-05-27T17:09:11.376Z,28.4
2017-05-27T17:10:49.025Z,28.33
2017-05-27T17:11:29.476Z,28.31
2017-05-27T17:12:09.922Z,28.3
2017-05-27T17:12:50.361Z,28.18
2017-05-27T17:13:30.783Z,28.18
2017-05-27T17:14:11.225Z,28.18
2017-05-27T17:14:51.657Z,28.12
2017-05-27T17:15:32.060Z,28.09
2017-05-27T17:16:12.500Z,28.12
2017-05-27T17:16:52.983Z,28.1
2017-05-27T17:17:33.379Z,28.12
2017-05-27T17:18:13.794Z,28.12
2017-05-27T17:18:54.270Z,28.22
2017-05-27T17:19:34.692Z,28.15
2017-05-27T17:20:15.178Z,28.18
2017-05-27T17:22:03.002Z,28.22
2017-05-27T17:22:43.433Z,28.12
2017-05-27T17:23:23.873Z,28.1
2017-05-27T17:25:12.243Z,28.08
2017-05-27T17:25:52.686Z,28.15
2017-05-27T17:26:33.131Z,28.13
2017-05-27T17:27:13.580Z,28.09
2017-05-27T17:29:06.346Z,28.12
2017-05-27T17:29:46.750Z,28.04
2017-05-27T17:30:27.245Z,28.06
2017-05-27T17:31:07.782Z,28.12
2017-05-27T17:31:48.262Z,28.04
2017-05-27T17:32:28.661Z,28.03
2017-05-27T17:33:09.163Z,27.98
2017-05-27T17:33:49.610Z,28.01
2017-05-27T17:34:30.096Z,28
2017-05-27T17:36:43.141Z,27.97
2017-05-27T17:37:24.421Z,28.04
2017-05-27T17:38:04.864Z,28.03
2017-05-27T17:38:45.379Z,27.98
2017-05-27T17:39:25.846Z,28.09
2017-05-27T17:40:06.253Z,27.97
2017-05-27T17:40:46.701Z,28
2017-05-27T17:41:27.143Z,27.94
2017-05-27T17:43:04.707Z,27.79
2017-05-27T17:43:45.140Z,27.82
2017-05-27T17:44:25.562Z,27.82
2017-05-27T17:45:06.006Z,27.81
2017-05-27T17:46:54.771Z,27.76
2017-05-27T17:47:35.197Z,27.82
2017-05-27T17:48:15.686Z,27.67
2017-05-27T17:48:56.229Z,27.68
2017-05-27T17:49:36.661Z,27.71
2017-05-27T17:50:17.131Z,27.64
2017-05-27T17:50:57.683Z,27.64
2017-05-27T17:51:38.151Z,27.63
2017-05-27T17:52:18.596Z,27.57
2017-05-27T17:52:59.057Z,27.53
2017-05-27T17:53:39.445Z,27.61
2017-05-27T17:54:19.867Z,27.57
2017-05-27T17:55:00.316Z,27.55
2017-05-27T17:55:40.706Z,27.57
2017-05-27T17:56:21.139Z,27.48
2017-05-27T17:57:01.584Z,27.57
2017-05-27T17:57:41.977Z,27.44
2017-05-27T17:58:22.460Z,27.47
2017-05-27T17:59:02.857Z,27.5
2017-05-27T17:59:43.298Z,27.44
2017-05-27T18:00:23.721Z,27.35
2017-05-27T18:02:16.384Z,27.37
2017-05-27T18:02:56.793Z,27.38
2017-05-27T18:03:37.263Z,27.3
2017-05-27T18:04:17.662Z,27.23
2017-05-27T18:04:58.090Z,27.2
2017-05-27T18:05:38.535Z,27.26
2017-05-27T18:06:18.939Z,27.18
2017-05-27T18:06:59.356Z,27.25
2017-05-27T18:07:39.767Z,27.15
2017-05-27T18:08:20.175Z,27.15
2017-05-27T18:09:00.582Z,27.08
2017-05-27T18:09:41.023Z,27.13
2017-05-27T18:10:21.563Z,27
2017-05-27T18:11:02.007Z,27
2017-05-27T18:11:42.513Z,27.03
2017-05-27T18:12:22.931Z,27.01
2017-05-27T18:14:35.945Z,26.97
2017-05-27T18:15:16.361Z,26.92
2017-05-27T18:15:56.769Z,26.82
2017-05-27T18:16:37.224Z,26.83
2017-05-27T18:17:17.611Z,26.86
2017-05-27T18:17:58.019Z,26.79
2017-05-27T18:18:38.477Z,26.78
2017-05-27T18:20:36.180Z,26.76
2017-05-27T18:21:16.614Z,26.7
2017-05-27T18:21:57.070Z,26.61
2017-05-27T18:22:37.516Z,26.7
2017-05-27T18:23:17.937Z,26.6
2017-05-27T18:23:58.379Z,26.64
2017-05-27T18:24:38.792Z,26.66
2017-05-27T18:25:19.220Z,26.63
2017-05-27T18:25:59.618Z,26.61
2017-05-27T18:27:47.151Z,26.6
2017-05-27T18:28:27.584Z,26.53
2017-05-27T18:29:08.063Z,26.49
2017-05-27T18:29:48.514Z,26.49
2017-05-27T18:30:28.966Z,26.48
2017-05-27T18:31:09.387Z,26.48
2017-05-27T18:31:49.768Z,26.39
2017-05-27T18:33:27.243Z,26.41
2017-05-27T18:34:07.685Z,26.36
2017-05-27T18:34:48.091Z,26.31
2017-05-27T18:35:28.506Z,26.3
2017-05-27T18:36:08.963Z,26.33
2017-05-27T18:36:49.391Z,26.24
2017-05-27T18:38:42.104Z,26.26
2017-05-27T18:39:22.517Z,26.16
2017-05-27T18:40:02.949Z,26.22
2017-05-27T18:40:43.387Z,26.13
2017-05-27T18:41:23.855Z,26.03
2017-05-27T18:42:04.219Z,26.08
2017-05-27T18:43:57.005Z,26.08
2017-05-27T18:44:37.432Z,26.04
2017-05-27T18:45:17.850Z,25.98
2017-05-27T18:45:58.342Z,25.98
2017-05-27T18:46:38.799Z,25.93
2017-05-27T18:47:19.196Z,25.99
2017-05-27T18:47:59.638Z,25.83
2017-05-27T18:48:40.060Z,25.86
2017-05-27T18:49:20.494Z,25.85
2017-05-27T18:50:00.889Z,25.77
2017-05-27T18:50:41.300Z,25.8
2017-05-27T18:51:21.732Z,25.74
2017-05-27T18:52:02.186Z,25.66
2017-05-27T18:52:42.582Z,25.66
2017-05-27T18:53:23.041Z,25.58
2017-05-27T18:54:03.452Z,25.58
2017-05-27T18:54:43.903Z,25.49
2017-05-27T18:55:24.332Z,25.51
2017-05-27T18:57:12.641Z,25.41
2017-05-27T18:57:53.074Z,25.29
2017-05-27T18:58:33.521Z,25.24
2017-05-27T18:59:13.938Z,25.19
2017-05-27T18:59:54.349Z,25.22